sensor_id;sensor_type;location;lat;lon;timestamp;P1;durP1;ratioP1;P2;durP2;ratioP2
66751;SDS011;53663;42.676;23.238;2022-09-23T00:01:52;4.78;;;3.40;;
66751;SDS011;53663;42.676;23.238;2022-09-23T00:04:18;4.80;;;3.60;;
66751;SDS011;53663;42.676;23.238;2022-09-23T00:06:44;6.47;;;3.70;;
66751;SDS011;53663;42.676;23.238;2022-09-23T00:09:09;6.20;;;4.00;;
66751;SDS011;53663;42.676;23.238;2022-09-23T00:11:35;5.90;;;3.60;;
66751;SDS011;53663;42.676;23.238;2022-09-23T00:14:01;5.07;;;3.70;;
66751;SDS011;53663;42.676;23.238;2022-09-23T00:16:31;4.32;;;3.40;;
66751;SDS011;53663;42.676;23.238;2022-09-23T00:19:01;5.82;;;3.90;;
66751;SDS011;53663;42.676;23.238;2022-09-23T00:21:28;5.13;;;3.63;;
66751;SDS011;53663;42.676;23.238;2022-09-23T00:23:54;5.75;;;3.90;;
66751;SDS011;53663;42.676;23.238;2022-09-23T00:26:20;6.57;;;3.80;;
66751;SDS011;53663;42.676;23.238;2022-09-23T00:28:47;11.00;;;5.20;;
66751;SDS011;53663;42.676;23.238;2022-09-23T00:31:18;13.15;;;5.88;;
66751;SDS011;53663;42.676;23.238;2022-09-23T00:33:46;13.68;;;5.18;;
66751;SDS011;53663;42.676;23.238;2022-09-23T00:36:12;10.35;;;4.75;;
66751;SDS011;53663;42.676;23.238;2022-09-23T00:38:42;8.50;;;4.07;;
66751;SDS011;53663;42.676;23.238;2022-09-23T00:41:08;6.53;;;3.70;;
66751;SDS011;53663;42.676;23.238;2022-09-23T00:43:35;8.32;;;4.22;;
66751;SDS011;53663;42.676;23.238;2022-09-23T00:48:43;4.78;;;3.22;;
66751;SDS011;53663;42.676;23.238;2022-09-23T00:51:11;5.82;;;3.47;;
66751;SDS011;53663;42.676;23.238;2022-09-23T00:53:42;5.35;;;3.50;;
66751;SDS011;53663;42.676;23.238;2022-09-23T00:56:09;5.85;;;3.53;;
66751;SDS011;53663;42.676;23.238;2022-09-23T00:58:38;4.00;;;3.10;;
66751;SDS011;53663;42.676;23.238;2022-09-23T01:01:06;3.92;;;3.05;;
66751;SDS011;53663;42.676;23.238;2022-09-23T01:03:31;4.30;;;2.95;;
66751;SDS011;53663;42.676;23.238;2022-09-23T01:05:57;3.92;;;2.97;;
66751;SDS011;53663;42.676;23.238;2022-09-23T01:08:23;6.25;;;3.13;;
66751;SDS011;53663;42.676;23.238;2022-09-23T01:13:55;7.32;;;2.97;;
66751;SDS011;53663;42.676;23.238;2022-09-23T01:16:38;4.10;;;2.90;;
66751;SDS011;53663;42.676;23.238;2022-09-23T01:22:16;4.43;;;2.70;;
66751;SDS011;53663;42.676;23.238;2022-09-23T01:30:39;4.30;;;2.97;;
66751;SDS011;53663;42.676;23.238;2022-09-23T01:33:53;5.65;;;3.17;;
66751;SDS011;53663;42.676;23.238;2022-09-23T01:36:21;4.82;;;3.00;;
66751;SDS011;53663;42.676;23.238;2022-09-23T01:44:19;5.93;;;3.58;;
66751;SDS011;53663;42.676;23.238;2022-09-23T01:47:01;5.60;;;3.60;;
66751;SDS011;53663;42.676;23.238;2022-09-23T01:49:40;5.60;;;3.63;;
66751;SDS011;53663;42.676;23.238;2022-09-23T01:54:55;6.18;;;3.40;;
66751;SDS011;53663;42.676;23.238;2022-09-23T01:57:37;7.20;;;3.40;;
66751;SDS011;53663;42.676;23.238;2022-09-23T02:00:09;4.32;;;3.50;;
66751;SDS011;53663;42.676;23.238;2022-09-23T02:02:49;4.25;;;3.15;;
66751;SDS011;53663;42.676;23.238;2022-09-23T02:05:31;4.82;;;3.25;;
66751;SDS011;53663;42.676;23.238;2022-09-23T02:08:03;6.45;;;3.38;;
66751;SDS011;53663;42.676;23.238;2022-09-23T02:10:33;8.20;;;3.30;;
66751;SDS011;53663;42.676;23.238;2022-09-23T02:13:13;5.43;;;3.20;;
66751;SDS011;53663;42.676;23.238;2022-09-23T02:15:51;4.45;;;3.13;;
66751;SDS011;53663;42.676;23.238;2022-09-23T02:18:21;7.88;;;3.10;;
66751;SDS011;53663;42.676;23.238;2022-09-23T02:20:56;4.22;;;2.95;;
66751;SDS011;53663;42.676;23.238;2022-09-23T02:23:37;5.85;;;3.10;;
66751;SDS011;53663;42.676;23.238;2022-09-23T02:26:15;5.13;;;3.10;;
66751;SDS011;53663;42.676;23.238;2022-09-23T02:45:04;3.72;;;2.75;;
66751;SDS011;53663;42.676;23.238;2022-09-23T02:47:30;3.78;;;2.45;;
66751;SDS011;53663;42.676;23.238;2022-09-23T02:49:59;4.45;;;3.00;;
66751;SDS011;53663;42.676;23.238;2022-09-23T02:52:25;5.32;;;3.08;;
66751;SDS011;53663;42.676;23.238;2022-09-23T02:54:51;3.85;;;2.70;;
66751;SDS011;53663;42.676;23.238;2022-09-23T02:57:17;5.05;;;2.85;;
66751;SDS011;53663;42.676;23.238;2022-09-23T02:59:43;2.75;;;2.42;;
66751;SDS011;53663;42.676;23.238;2022-09-23T03:04:56;3.47;;;2.55;;
66751;SDS011;53663;42.676;23.238;2022-09-23T03:10:58;3.60;;;2.63;;
66751;SDS011;53663;42.676;23.238;2022-09-23T03:16:44;4.45;;;3.00;;
66751;SDS011;53663;42.676;23.238;2022-09-23T03:19:21;8.23;;;3.00;;
66751;SDS011;53663;42.676;23.238;2022-09-23T03:24:43;3.90;;;2.55;;
66751;SDS011;53663;42.676;23.238;2022-09-23T03:27:13;4.28;;;2.92;;
66751;SDS011;53663;42.676;23.238;2022-09-23T03:29:44;3.95;;;2.90;;
66751;SDS011;53663;42.676;23.238;2022-09-23T03:32:13;5.35;;;2.90;;
66751;SDS011;53663;42.676;23.238;2022-09-23T03:34:41;3.72;;;2.83;;
66751;SDS011;53663;42.676;23.238;2022-09-23T03:37:10;3.45;;;2.80;;
66751;SDS011;53663;42.676;23.238;2022-09-23T03:39:44;6.30;;;3.10;;
66751;SDS011;53663;42.676;23.238;2022-09-23T03:42:21;3.90;;;2.85;;
66751;SDS011;53663;42.676;23.238;2022-09-23T03:44:51;4.35;;;2.92;;
66751;SDS011;53663;42.676;23.238;2022-09-23T03:47:18;4.88;;;3.05;;
66751;SDS011;53663;42.676;23.238;2022-09-23T03:49:45;4.53;;;3.10;;
66751;SDS011;53663;42.676;23.238;2022-09-23T03:52:13;4.20;;;3.00;;
66751;SDS011;53663;42.676;23.238;2022-09-23T03:54:42;7.03;;;2.97;;
66751;SDS011;53663;42.676;23.238;2022-09-23T03:57:08;3.83;;;2.78;;
66751;SDS011;53663;42.676;23.238;2022-09-23T03:59:35;4.72;;;3.50;;
66751;SDS011;53663;42.676;23.238;2022-09-23T04:02:01;8.10;;;3.38;;
66751;SDS011;53663;42.676;23.238;2022-09-23T04:04:26;4.25;;;3.20;;
66751;SDS011;53663;42.676;23.238;2022-09-23T04:06:55;5.25;;;3.50;;
66751;SDS011;53663;42.676;23.238;2022-09-23T04:09:21;4.53;;;2.95;;
66751;SDS011;53663;42.676;23.238;2022-09-23T04:11:48;4.70;;;2.80;;
66751;SDS011;53663;42.676;23.238;2022-09-23T04:14:14;4.35;;;2.70;;
66751;SDS011;53663;42.676;23.238;2022-09-23T04:16:40;5.07;;;3.05;;
66751;SDS011;53663;42.676;23.238;2022-09-23T04:19:05;5.80;;;3.05;;
66751;SDS011;53663;42.676;23.238;2022-09-23T04:21:31;4.97;;;3.17;;
66751;SDS011;53663;42.676;23.238;2022-09-23T04:23:56;7.35;;;3.80;;
66751;SDS011;53663;42.676;23.238;2022-09-23T04:26:22;7.10;;;4.70;;
66751;SDS011;53663;42.676;23.238;2022-09-23T04:28:48;10.45;;;5.50;;
66751;SDS011;53663;42.676;23.238;2022-09-23T04:31:13;10.77;;;5.30;;
66751;SDS011;53663;42.676;23.238;2022-09-23T04:33:39;11.95;;;5.60;;
66751;SDS011;53663;42.676;23.238;2022-09-23T04:36:04;9.07;;;5.60;;
66751;SDS011;53663;42.676;23.238;2022-09-23T04:38:30;9.13;;;5.85;;
66751;SDS011;53663;42.676;23.238;2022-09-23T04:40:55;12.13;;;5.78;;
66751;SDS011;53663;42.676;23.238;2022-09-23T04:43:21;10.32;;;5.20;;
66751;SDS011;53663;42.676;23.238;2022-09-23T04:46:00;9.38;;;5.30;;
66751;SDS011;53663;42.676;23.238;2022-09-23T04:48:27;7.63;;;5.03;;
66751;SDS011;53663;42.676;23.238;2022-09-23T04:50:52;8.50;;;4.97;;
66751;SDS011;53663;42.676;23.238;2022-09-23T04:53:18;7.60;;;5.03;;
66751;SDS011;53663;42.676;23.238;2022-09-23T04:55:45;9.43;;;5.70;;
66751;SDS011;53663;42.676;23.238;2022-09-23T04:58:11;8.25;;;5.47;;
66751;SDS011;53663;42.676;23.238;2022-09-23T05:00:37;8.95;;;5.93;;
66751;SDS011;53663;42.676;23.238;2022-09-23T05:03:02;10.35;;;5.72;;
66751;SDS011;53663;42.676;23.238;2022-09-23T05:05:29;11.30;;;7.10;;
66751;SDS011;53663;42.676;23.238;2022-09-23T05:07:55;16.48;;;6.50;;
66751;SDS011;53663;42.676;23.238;2022-09-23T05:10:21;15.30;;;6.45;;
66751;SDS011;53663;42.676;23.238;2022-09-23T05:12:47;9.23;;;6.10;;
66751;SDS011;53663;42.676;23.238;2022-09-23T05:15:13;8.27;;;5.60;;
66751;SDS011;53663;42.676;23.238;2022-09-23T05:17:43;10.05;;;6.25;;
66751;SDS011;53663;42.676;23.238;2022-09-23T05:20:09;9.35;;;6.10;;
66751;SDS011;53663;42.676;23.238;2022-09-23T05:22:35;10.48;;;6.22;;
66751;SDS011;53663;42.676;23.238;2022-09-23T05:25:01;10.32;;;5.60;;
66751;SDS011;53663;42.676;23.238;2022-09-23T05:27:27;9.38;;;5.80;;
66751;SDS011;53663;42.676;23.238;2022-09-23T05:29:53;8.52;;;5.50;;
66751;SDS011;53663;42.676;23.238;2022-09-23T05:32:18;8.05;;;5.45;;
66751;SDS011;53663;42.676;23.238;2022-09-23T05:34:44;7.75;;;5.30;;
66751;SDS011;53663;42.676;23.238;2022-09-23T05:37:10;11.63;;;6.22;;
66751;SDS011;53663;42.676;23.238;2022-09-23T05:39:35;9.70;;;6.25;;
66751;SDS011;53663;42.676;23.238;2022-09-23T05:42:01;9.32;;;5.22;;
66751;SDS011;53663;42.676;23.238;2022-09-23T05:44:27;6.50;;;4.53;;
66751;SDS011;53663;42.676;23.238;2022-09-23T05:46:53;6.95;;;4.28;;
66751;SDS011;53663;42.676;23.238;2022-09-23T05:49:18;6.05;;;4.00;;
66751;SDS011;53663;42.676;23.238;2022-09-23T05:51:44;5.22;;;3.88;;
66751;SDS011;53663;42.676;23.238;2022-09-23T05:54:09;5.95;;;4.05;;
66751;SDS011;53663;42.676;23.238;2022-09-23T05:56:35;4.53;;;3.42;;
66751;SDS011;53663;42.676;23.238;2022-09-23T05:59:01;6.18;;;3.40;;
66751;SDS011;53663;42.676;23.238;2022-09-23T06:01:29;6.28;;;3.55;;
66751;SDS011;53663;42.676;23.238;2022-09-23T06:03:58;4.10;;;3.05;;
66751;SDS011;53663;42.676;23.238;2022-09-23T06:06:57;5.90;;;3.40;;
66751;SDS011;53663;42.676;23.238;2022-09-23T06:09:17;3.72;;;2.97;;
66751;SDS011;53663;42.676;23.238;2022-09-23T06:11:42;5.03;;;2.63;;
66751;SDS011;53663;42.676;23.238;2022-09-23T06:14:10;3.95;;;2.90;;
66751;SDS011;53663;42.676;23.238;2022-09-23T06:16:37;3.33;;;2.65;;
66751;SDS011;53663;42.676;23.238;2022-09-23T06:19:02;3.17;;;2.22;;
66751;SDS011;53663;42.676;23.238;2022-09-23T06:21:31;3.25;;;2.78;;
66751;SDS011;53663;42.676;23.238;2022-09-23T06:23:58;2.90;;;2.38;;
66751;SDS011;53663;42.676;23.238;2022-09-23T06:26:24;3.33;;;2.50;;
66751;SDS011;53663;42.676;23.238;2022-09-23T06:28:51;2.60;;;2.40;;
66751;SDS011;53663;42.676;23.238;2022-09-23T06:31:16;3.35;;;2.42;;
66751;SDS011;53663;42.676;23.238;2022-09-23T06:33:42;2.95;;;2.63;;
66751;SDS011;53663;42.676;23.238;2022-09-23T06:36:10;3.30;;;2.92;;
66751;SDS011;53663;42.676;23.238;2022-09-23T06:38:40;3.35;;;2.70;;
66751;SDS011;53663;42.676;23.238;2022-09-23T06:41:09;3.13;;;2.63;;
66751;SDS011;53663;42.676;23.238;2022-09-23T06:43:35;3.55;;;2.80;;
66751;SDS011;53663;42.676;23.238;2022-09-23T06:46:02;4.05;;;2.50;;
66751;SDS011;53663;42.676;23.238;2022-09-23T06:48:29;3.90;;;2.90;;
66751;SDS011;53663;42.676;23.238;2022-09-23T06:50:58;6.00;;;2.88;;
66751;SDS011;53663;42.676;23.238;2022-09-23T06:53:27;2.88;;;2.60;;
66751;SDS011;53663;42.676;23.238;2022-09-23T06:56:05;4.00;;;2.65;;
66751;SDS011;53663;42.676;23.238;2022-09-23T06:58:33;7.38;;;3.28;;
66751;SDS011;53663;42.676;23.238;2022-09-23T07:01:00;4.65;;;2.63;;
66751;SDS011;53663;42.676;23.238;2022-09-23T07:03:31;4.07;;;2.60;;
66751;SDS011;53663;42.676;23.238;2022-09-23T07:05:57;3.00;;;2.70;;
66751;SDS011;53663;42.676;23.238;2022-09-23T07:08:23;3.33;;;2.90;;
66751;SDS011;53663;42.676;23.238;2022-09-23T07:10:55;5.05;;;2.67;;
66751;SDS011;53663;42.676;23.238;2022-09-23T07:13:22;3.00;;;2.38;;
66751;SDS011;53663;42.676;23.238;2022-09-23T07:15:51;3.42;;;2.70;;
66751;SDS011;53663;42.676;23.238;2022-09-23T07:20:44;3.38;;;2.53;;
66751;SDS011;53663;42.676;23.238;2022-09-23T07:23:11;3.03;;;2.72;;
66751;SDS011;53663;42.676;23.238;2022-09-23T07:25:36;3.53;;;2.70;;
66751;SDS011;53663;42.676;23.238;2022-09-23T07:28:02;3.25;;;2.70;;
66751;SDS011;53663;42.676;23.238;2022-09-23T07:30:28;4.50;;;2.78;;
66751;SDS011;53663;42.676;23.238;2022-09-23T07:32:54;2.60;;;2.40;;
66751;SDS011;53663;42.676;23.238;2022-09-23T07:35:20;2.53;;;2.33;;
66751;SDS011;53663;42.676;23.238;2022-09-23T07:37:45;2.90;;;2.60;;
66751;SDS011;53663;42.676;23.238;2022-09-23T07:40:11;5.68;;;2.70;;
66751;SDS011;53663;42.676;23.238;2022-09-23T07:42:37;4.15;;;3.05;;
66751;SDS011;53663;42.676;23.238;2022-09-23T07:45:05;3.22;;;2.80;;
66751;SDS011;53663;42.676;23.238;2022-09-23T07:47:33;6.90;;;2.55;;
66751;SDS011;53663;42.676;23.238;2022-09-23T07:49:59;4.30;;;2.50;;
66751;SDS011;53663;42.676;23.238;2022-09-23T07:52:24;3.30;;;2.15;;
66751;SDS011;53663;42.676;23.238;2022-09-23T07:54:50;3.80;;;2.78;;
66751;SDS011;53663;42.676;23.238;2022-09-23T07:57:16;3.00;;;2.70;;
66751;SDS011;53663;42.676;23.238;2022-09-23T07:59:41;3.38;;;2.70;;
66751;SDS011;53663;42.676;23.238;2022-09-23T08:02:07;5.78;;;3.00;;
66751;SDS011;53663;42.676;23.238;2022-09-23T08:04:34;3.33;;;2.53;;
66751;SDS011;53663;42.676;23.238;2022-09-23T08:07:02;4.38;;;2.58;;
66751;SDS011;53663;42.676;23.238;2022-09-23T08:09:30;3.95;;;2.50;;
66751;SDS011;53663;42.676;23.238;2022-09-23T08:11:58;3.03;;;2.40;;
66751;SDS011;53663;42.676;23.238;2022-09-23T08:23:45;3.85;;;2.70;;
66751;SDS011;53663;42.676;23.238;2022-09-23T08:26:11;2.75;;;2.40;;
66751;SDS011;53663;42.676;23.238;2022-09-23T08:28:36;3.88;;;2.67;;
66751;SDS011;53663;42.676;23.238;2022-09-23T08:31:02;2.88;;;2.40;;
66751;SDS011;53663;42.676;23.238;2022-09-23T08:33:28;3.35;;;2.40;;
66751;SDS011;53663;42.676;23.238;2022-09-23T08:35:57;5.97;;;3.10;;
66751;SDS011;53663;42.676;23.238;2022-09-23T08:38:27;5.15;;;3.28;;
66751;SDS011;53663;42.676;23.238;2022-09-23T08:40:54;2.60;;;2.40;;
66751;SDS011;53663;42.676;23.238;2022-09-23T08:43:30;3.22;;;2.50;;
66751;SDS011;53663;42.676;23.238;2022-09-23T08:45:59;3.00;;;2.40;;
66751;SDS011;53663;42.676;23.238;2022-09-23T08:48:33;2.85;;;2.50;;
66751;SDS011;53663;42.676;23.238;2022-09-23T08:51:06;2.05;;;1.95;;
66751;SDS011;53663;42.676;23.238;2022-09-23T08:53:37;3.80;;;2.40;;
66751;SDS011;53663;42.676;23.238;2022-09-23T08:56:12;2.05;;;1.90;;
66751;SDS011;53663;42.676;23.238;2022-09-23T09:03:56;3.70;;;1.95;;
66751;SDS011;53663;42.676;23.238;2022-09-23T09:08:56;3.30;;;2.25;;
66751;SDS011;53663;42.676;23.238;2022-09-23T09:11:31;4.47;;;2.45;;
66751;SDS011;53663;42.676;23.238;2022-09-23T09:19:03;3.28;;;1.95;;
66751;SDS011;53663;42.676;23.238;2022-09-23T09:21:36;3.22;;;2.10;;
66751;SDS011;53663;42.676;23.238;2022-09-23T09:24:11;2.88;;;2.05;;
66751;SDS011;53663;42.676;23.238;2022-09-23T09:26:49;7.10;;;2.00;;
66751;SDS011;53663;42.676;23.238;2022-09-23T09:29:27;3.22;;;2.00;;
66751;SDS011;53663;42.676;23.238;2022-09-23T09:31:58;2.50;;;2.08;;
66751;SDS011;53663;42.676;23.238;2022-09-23T09:37:03;2.17;;;1.88;;
66751;SDS011;53663;42.676;23.238;2022-09-23T09:39:43;4.43;;;1.92;;
66751;SDS011;53663;42.676;23.238;2022-09-23T09:42:10;2.65;;;2.00;;
66751;SDS011;53663;42.676;23.238;2022-09-23T09:47:26;2.60;;;2.03;;
66751;SDS011;53663;42.676;23.238;2022-09-23T09:50:13;2.58;;;2.05;;
66751;SDS011;53663;42.676;23.238;2022-09-23T09:52:46;2.08;;;1.88;;
66751;SDS011;53663;42.676;23.238;2022-09-23T09:55:25;5.03;;;2.15;;
66751;SDS011;53663;42.676;23.238;2022-09-23T09:57:59;4.43;;;1.98;;
66751;SDS011;53663;42.676;23.238;2022-09-23T10:03:01;5.40;;;2.00;;
66751;SDS011;53663;42.676;23.238;2022-09-23T10:11:03;1.95;;;1.80;;
66751;SDS011;53663;42.676;23.238;2022-09-23T10:14:02;3.95;;;1.80;;
66751;SDS011;53663;42.676;23.238;2022-09-23T10:16:45;3.00;;;1.58;;
66751;SDS011;53663;42.676;23.238;2022-09-23T10:19:26;2.60;;;1.80;;
66751;SDS011;53663;42.676;23.238;2022-09-23T10:21:57;2.15;;;1.60;;
66751;SDS011;53663;42.676;23.238;2022-09-23T10:24:29;2.17;;;1.90;;
66751;SDS011;53663;42.676;23.238;2022-09-23T10:27:04;1.98;;;1.77;;
66751;SDS011;53663;42.676;23.238;2022-09-23T10:34:46;2.25;;;1.80;;
66751;SDS011;53663;42.676;23.238;2022-09-23T10:37:16;2.60;;;2.00;;
66751;SDS011;53663;42.676;23.238;2022-09-23T10:39:59;2.90;;;2.00;;
66751;SDS011;53663;42.676;23.238;2022-09-23T10:46:16;4.35;;;1.80;;
66751;SDS011;53663;42.676;23.238;2022-09-23T10:56:43;1.65;;;1.50;;
66751;SDS011;53663;42.676;23.238;2022-09-23T10:59:31;2.03;;;1.73;;
66751;SDS011;53663;42.676;23.238;2022-09-23T11:08:33;1.67;;;1.58;;
66751;SDS011;53663;42.676;23.238;2022-09-23T11:19:23;1.85;;;1.73;;
66751;SDS011;53663;42.676;23.238;2022-09-23T11:35:49;2.78;;;1.88;;
66751;SDS011;53663;42.676;23.238;2022-09-23T11:38:20;2.00;;;1.60;;
66751;SDS011;53663;42.676;23.238;2022-09-23T11:41:12;1.45;;;1.35;;
66751;SDS011;53663;42.676;23.238;2022-09-23T11:43:43;1.83;;;1.73;;
66751;SDS011;53663;42.676;23.238;2022-09-23T11:54:33;1.20;;;1.20;;
66751;SDS011;53663;42.676;23.238;2022-09-23T11:57:00;1.50;;;1.40;;
66751;SDS011;53663;42.676;23.238;2022-09-23T12:02:20;1.17;;;1.10;;
66751;SDS011;53663;42.676;23.238;2022-09-23T12:04:46;1.10;;;1.10;;
66751;SDS011;53663;42.676;23.238;2022-09-23T12:07:25;1.15;;;1.13;;
66751;SDS011;53663;42.676;23.238;2022-09-23T12:24:02;3.15;;;1.20;;
66751;SDS011;53663;42.676;23.238;2022-09-23T12:27:06;1.00;;;1.00;;
66751;SDS011;53663;42.676;23.238;2022-09-23T12:29:35;1.17;;;1.13;;
66751;SDS011;53663;42.676;23.238;2022-09-23T12:32:04;1.30;;;1.20;;
66751;SDS011;53663;42.676;23.238;2022-09-23T12:34:38;2.27;;;1.40;;
66751;SDS011;53663;42.676;23.238;2022-09-23T12:37:08;1.55;;;1.30;;
66751;SDS011;53663;42.676;23.238;2022-09-23T12:39:34;1.20;;;1.20;;
66751;SDS011;53663;42.676;23.238;2022-09-23T12:42:09;1.40;;;1.30;;
66751;SDS011;53663;42.676;23.238;2022-09-23T12:44:41;2.30;;;1.63;;
66751;SDS011;53663;42.676;23.238;2022-09-23T12:49:48;1.65;;;1.50;;
66751;SDS011;53663;42.676;23.238;2022-09-23T12:54:41;4.60;;;1.60;;
66751;SDS011;53663;42.676;23.238;2022-09-23T12:57:50;1.95;;;1.60;;
66751;SDS011;53663;42.676;23.238;2022-09-23T13:02:34;3.03;;;2.05;;
66751;SDS011;53663;42.676;23.238;2022-09-23T13:05:21;7.85;;;2.10;;
66751;SDS011;53663;42.676;23.238;2022-09-23T13:08:08;6.20;;;1.80;;
66751;SDS011;53663;42.676;23.238;2022-09-23T13:10:46;2.13;;;1.73;;
66751;SDS011;53663;42.676;23.238;2022-09-23T13:13:56;2.30;;;1.83;;
66751;SDS011;53663;42.676;23.238;2022-09-23T13:16:20;1.88;;;1.65;;
66751;SDS011;53663;42.676;23.238;2022-09-23T13:19:04;3.55;;;1.65;;
66751;SDS011;53663;42.676;23.238;2022-09-23T13:24:15;1.60;;;1.50;;
66751;SDS011;53663;42.676;23.238;2022-09-23T13:26:48;3.05;;;1.70;;
66751;SDS011;53663;42.676;23.238;2022-09-23T13:29:25;1.85;;;1.70;;
66751;SDS011;53663;42.676;23.238;2022-09-23T13:32:05;6.28;;;1.70;;
66751;SDS011;53663;42.676;23.238;2022-09-23T13:34:39;2.03;;;1.80;;
66751;SDS011;53663;42.676;23.238;2022-09-23T13:37:21;3.90;;;2.40;;
66751;SDS011;53663;42.676;23.238;2022-09-23T13:39:49;2.90;;;2.28;;
66751;SDS011;53663;42.676;23.238;2022-09-23T13:42:25;3.67;;;2.35;;
66751;SDS011;53663;42.676;23.238;2022-09-23T13:44:56;6.53;;;2.47;;
66751;SDS011;53663;42.676;23.238;2022-09-23T13:47:24;2.60;;;1.90;;
66751;SDS011;53663;42.676;23.238;2022-09-23T13:49:52;2.97;;;1.80;;
66751;SDS011;53663;42.676;23.238;2022-09-23T13:52:23;3.78;;;2.03;;
66751;SDS011;53663;42.676;23.238;2022-09-23T13:54:50;2.03;;;1.70;;
66751;SDS011;53663;42.676;23.238;2022-09-23T14:00:29;3.63;;;1.80;;
66751;SDS011;53663;42.676;23.238;2022-09-23T14:02:48;2.08;;;1.70;;
66751;SDS011;53663;42.676;23.238;2022-09-23T14:05:21;3.42;;;1.92;;
66751;SDS011;53663;42.676;23.238;2022-09-23T14:07:52;2.35;;;2.05;;
66751;SDS011;53663;42.676;23.238;2022-09-23T14:10:20;7.13;;;2.13;;
66751;SDS011;53663;42.676;23.238;2022-09-23T14:12:47;3.20;;;1.80;;
66751;SDS011;53663;42.676;23.238;2022-09-23T14:15:16;1.60;;;1.50;;
66751;SDS011;53663;42.676;23.238;2022-09-23T14:17:44;3.17;;;1.60;;
66751;SDS011;53663;42.676;23.238;2022-09-23T14:20:16;2.28;;;1.70;;
66751;SDS011;53663;42.676;23.238;2022-09-23T14:22:45;5.07;;;1.80;;
66751;SDS011;53663;42.676;23.238;2022-09-23T14:25:11;3.92;;;2.15;;
66751;SDS011;53663;42.676;23.238;2022-09-23T14:27:39;1.85;;;1.75;;
66751;SDS011;53663;42.676;23.238;2022-09-23T14:30:08;1.80;;;1.65;;
66751;SDS011;53663;42.676;23.238;2022-09-23T14:32:39;2.80;;;1.52;;
66751;SDS011;53663;42.676;23.238;2022-09-23T14:35:13;4.10;;;1.90;;
66751;SDS011;53663;42.676;23.238;2022-09-23T14:37:46;2.05;;;1.60;;
66751;SDS011;53663;42.676;23.238;2022-09-23T14:40:37;2.22;;;1.80;;
66751;SDS011;53663;42.676;23.238;2022-09-23T14:43:18;2.33;;;2.05;;
66751;SDS011;53663;42.676;23.238;2022-09-23T14:45:51;1.58;;;1.48;;
66751;SDS011;53663;42.676;23.238;2022-09-23T14:48:29;8.98;;;1.40;;
66751;SDS011;53663;42.676;23.238;2022-09-23T14:50:57;14.63;;;1.80;;
66751;SDS011;53663;42.676;23.238;2022-09-23T14:56:14;3.33;;;1.50;;
66751;SDS011;53663;42.676;23.238;2022-09-23T15:04:08;1.60;;;1.50;;
66751;SDS011;53663;42.676;23.238;2022-09-23T15:09:03;2.83;;;1.02;;
66751;SDS011;53663;42.676;23.238;2022-09-23T15:11:30;1.83;;;1.67;;
66751;SDS011;53663;42.676;23.238;2022-09-23T15:13:56;3.42;;;1.85;;
66751;SDS011;53663;42.676;23.238;2022-09-23T15:16:25;1.65;;;1.50;;
66751;SDS011;53663;42.676;23.238;2022-09-23T15:18:52;14.45;;;2.83;;
66751;SDS011;53663;42.676;23.238;2022-09-23T15:21:20;3.08;;;1.70;;
66751;SDS011;53663;42.676;23.238;2022-09-23T15:23:51;2.58;;;1.90;;
66751;SDS011;53663;42.676;23.238;2022-09-23T15:26:25;2.33;;;1.90;;
66751;SDS011;53663;42.676;23.238;2022-09-23T15:29:13;4.28;;;2.00;;
66751;SDS011;53663;42.676;23.238;2022-09-23T15:31:39;4.60;;;2.80;;
66751;SDS011;53663;42.676;23.238;2022-09-23T15:34:04;3.10;;;2.20;;
66751;SDS011;53663;42.676;23.238;2022-09-23T15:36:30;4.43;;;2.40;;
66751;SDS011;53663;42.676;23.238;2022-09-23T15:39:02;9.25;;;2.20;;
66751;SDS011;53663;42.676;23.238;2022-09-23T15:41:31;5.47;;;1.90;;
66751;SDS011;53663;42.676;23.238;2022-09-23T15:44:00;4.15;;;2.00;;
66751;SDS011;53663;42.676;23.238;2022-09-23T15:46:37;3.78;;;2.00;;
66751;SDS011;53663;42.676;23.238;2022-09-23T15:49:08;2.08;;;1.80;;
66751;SDS011;53663;42.676;23.238;2022-09-23T15:51:40;3.10;;;2.22;;
66751;SDS011;53663;42.676;23.238;2022-09-23T15:54:13;8.20;;;2.40;;
66751;SDS011;53663;42.676;23.238;2022-09-23T15:56:38;3.42;;;2.53;;
66751;SDS011;53663;42.676;23.238;2022-09-23T15:59:04;4.82;;;2.83;;
66751;SDS011;53663;42.676;23.238;2022-09-23T16:01:30;3.70;;;2.53;;
66751;SDS011;53663;42.676;23.238;2022-09-23T16:03:58;5.32;;;2.05;;
66751;SDS011;53663;42.676;23.238;2022-09-23T16:06:28;2.87;;;1.97;;
66751;SDS011;53663;42.676;23.238;2022-09-23T16:08:54;4.85;;;2.40;;
66751;SDS011;53663;42.676;23.238;2022-09-23T16:11:21;5.53;;;2.40;;
66751;SDS011;53663;42.676;23.238;2022-09-23T16:13:49;3.60;;;2.03;;
66751;SDS011;53663;42.676;23.238;2022-09-23T16:16:15;3.55;;;2.22;;
66751;SDS011;53663;42.676;23.238;2022-09-23T16:18:41;2.35;;;2.10;;
66751;SDS011;53663;42.676;23.238;2022-09-23T16:21:17;3.17;;;2.22;;
66751;SDS011;53663;42.676;23.238;2022-09-23T16:23:45;2.22;;;2.03;;
66751;SDS011;53663;42.676;23.238;2022-09-23T16:26:15;3.35;;;2.17;;
66751;SDS011;53663;42.676;23.238;2022-09-23T16:28:43;2.78;;;2.00;;
66751;SDS011;53663;42.676;23.238;2022-09-23T16:31:10;3.58;;;2.35;;
66751;SDS011;53663;42.676;23.238;2022-09-23T16:33:36;2.85;;;2.17;;
66751;SDS011;53663;42.676;23.238;2022-09-23T16:36:02;4.65;;;2.30;;
66751;SDS011;53663;42.676;23.238;2022-09-23T16:38:29;5.53;;;2.45;;
66751;SDS011;53663;42.676;23.238;2022-09-23T16:40:56;4.53;;;2.78;;
66751;SDS011;53663;42.676;23.238;2022-09-23T16:43:24;6.25;;;3.40;;
66751;SDS011;53663;42.676;23.238;2022-09-23T16:45:56;6.18;;;3.47;;
66751;SDS011;53663;42.676;23.238;2022-09-23T16:48:22;5.40;;;3.15;;
66751;SDS011;53663;42.676;23.238;2022-09-23T16:50:49;12.10;;;5.28;;
66751;SDS011;53663;42.676;23.238;2022-09-23T16:53:17;11.30;;;5.50;;
66751;SDS011;53663;42.676;23.238;2022-09-23T16:55:43;9.70;;;4.38;;
66751;SDS011;53663;42.676;23.238;2022-09-23T16:58:09;5.15;;;3.38;;
66751;SDS011;53663;42.676;23.238;2022-09-23T17:00:34;4.15;;;2.72;;
66751;SDS011;53663;42.676;23.238;2022-09-23T17:03:18;4.38;;;3.10;;
66751;SDS011;53663;42.676;23.238;2022-09-23T17:06:02;4.40;;;2.90;;
66751;SDS011;53663;42.676;23.238;2022-09-23T17:08:28;10.02;;;3.95;;
66751;SDS011;53663;42.676;23.238;2022-09-23T17:10:55;8.77;;;2.90;;
66751;SDS011;53663;42.676;23.238;2022-09-23T17:13:23;5.50;;;3.05;;
66751;SDS011;53663;42.676;23.238;2022-09-23T17:15:50;3.95;;;2.70;;
66751;SDS011;53663;42.676;23.238;2022-09-23T17:18:16;3.38;;;2.33;;
66751;SDS011;53663;42.676;23.238;2022-09-23T17:20:42;4.90;;;2.42;;
66751;SDS011;53663;42.676;23.238;2022-09-23T17:23:07;5.25;;;2.60;;
66751;SDS011;53663;42.676;23.238;2022-09-23T17:25:33;4.30;;;2.80;;
66751;SDS011;53663;42.676;23.238;2022-09-23T17:28:00;4.22;;;2.95;;
66751;SDS011;53663;42.676;23.238;2022-09-23T17:30:26;3.95;;;2.80;;
66751;SDS011;53663;42.676;23.238;2022-09-23T17:32:53;4.50;;;2.60;;
66751;SDS011;53663;42.676;23.238;2022-09-23T17:35:18;3.65;;;2.80;;
66751;SDS011;53663;42.676;23.238;2022-09-23T17:37:44;4.93;;;3.00;;
66751;SDS011;53663;42.676;23.238;2022-09-23T17:40:14;6.50;;;3.47;;
66751;SDS011;53663;42.676;23.238;2022-09-23T17:42:40;6.63;;;3.20;;
66751;SDS011;53663;42.676;23.238;2022-09-23T17:45:09;8.02;;;3.83;;
66751;SDS011;53663;42.676;23.238;2022-09-23T17:47:37;8.30;;;4.40;;
66751;SDS011;53663;42.676;23.238;2022-09-23T17:50:03;10.10;;;5.03;;
66751;SDS011;53663;42.676;23.238;2022-09-23T17:52:30;11.93;;;5.38;;
66751;SDS011;53663;42.676;23.238;2022-09-23T17:54:56;9.73;;;4.95;;